Rumford, Maine
Current Conditions -  °F | °C
As of 4:52 PM on Sunday 23 Nov 2014 (Local Time) from KBML Reporting Station
Overcast Overcast  
Wind Chill: 32°   Ceiling: 4200
Heat Index: 36°   Visibility: 7mi
Dew Point: 34°   Wind: 5mph
Humidity: 93%   Direction: 270°W
Pressure: 30.06"   Gusts: NA
Location:  44.55°N, 70.55°W
Report Text: KBML 232152Z AUTO 27004KT 7SM OVC042 02/01 A3006 RMK AO2 SLP192 T00220011
Loading
Personal Weather Stations






























Interactive Weather Map New forecast layout! Learn more

10-Day Weather Forecast

Advertisements
Track Severe Weather on mobile